createdAt,value
2019-05-17T00:01:07.436Z,7.43
2019-05-17T00:03:36.882Z,8.37
2019-05-17T00:06:06.929Z,10.23
2019-05-17T00:08:38.127Z,11.23
2019-05-17T00:11:08.914Z,12.63
2019-05-17T00:13:38.884Z,11.87
2019-05-17T00:16:08.619Z,6.73
2019-05-17T00:18:38.243Z,7.63
2019-05-17T00:21:07.898Z,6.60
2019-05-17T00:23:37.648Z,8.40
2019-05-17T00:26:07.289Z,6.50
2019-05-17T00:28:39.069Z,8.30
2019-05-17T00:31:08.554Z,7.57
2019-05-17T00:33:38.059Z,8.73
2019-05-17T00:36:07.374Z,4.70
2019-05-17T00:38:47.894Z,8.47
2019-05-17T00:41:08.604Z,4.70
2019-05-17T00:43:37.988Z,8.37
2019-05-17T00:46:07.415Z,9.27
2019-05-17T00:48:37.310Z,7.87
2019-05-17T00:51:10.263Z,4.83
2019-05-17T00:53:38.642Z,6.20
2019-05-17T00:56:07.795Z,7.60
2019-05-17T00:58:37.737Z,6.00
2019-05-17T01:01:08.263Z,4.57
2019-05-17T01:03:38.223Z,7.77
2019-05-17T01:06:07.915Z,5.93
2019-05-17T01:08:37.619Z,4.67
2019-05-17T01:11:07.746Z,11.07
2019-05-17T01:13:37.565Z,7.90
2019-05-17T01:16:07.550Z,4.90
2019-05-17T01:18:37.623Z,5.53
2019-05-17T01:21:08.088Z,6.13
2019-05-17T01:23:37.303Z,6.60
2019-05-17T01:26:07.515Z,6.83
2019-05-17T01:28:36.963Z,5.27
2019-05-17T01:31:06.901Z,8.50
2019-05-17T01:33:36.769Z,8.13
2019-05-17T01:36:07.013Z,4.10
2019-05-17T01:38:37.715Z,6.00
2019-05-17T01:41:07.676Z,10.43
2019-05-17T01:43:37.014Z,8.77
2019-05-17T01:46:06.867Z,11.23
2019-05-17T01:48:49.486Z,11.17
2019-05-17T01:51:18.825Z,7.87
2019-05-17T01:53:48.075Z,6.70
2019-05-17T01:56:17.318Z,5.90
2019-05-17T01:58:47.109Z,8.00
2019-05-17T02:01:17.121Z,5.37
2019-05-17T02:03:47.048Z,6.57
2019-05-17T02:06:16.723Z,5.37
2019-05-17T02:08:47.558Z,6.50
2019-05-17T02:11:18.370Z,4.00
2019-05-17T02:13:48.153Z,4.37
2019-05-17T02:16:17.671Z,4.73
2019-05-17T02:18:46.915Z,3.60
2019-05-17T02:21:16.834Z,4.00
2019-05-17T02:23:46.991Z,3.80
2019-05-17T02:26:17.416Z,3.63
2019-05-17T02:28:47.085Z,2.87
2019-05-17T02:31:16.745Z,3.53
2019-05-17T02:33:46.123Z,4.33
2019-05-17T02:36:15.355Z,3.20
2019-05-17T02:38:44.738Z,2.23
2019-05-17T02:41:14.590Z,2.23
2019-05-17T02:43:44.417Z,2.67
2019-05-17T02:46:13.912Z,3.10
2019-05-17T02:48:43.595Z,3.33
2019-05-17T02:51:13.372Z,2.93
2019-05-17T02:53:52.707Z,2.50
2019-05-17T02:56:23.115Z,2.23
2019-05-17T02:58:53.361Z,2.97
2019-05-17T03:01:23.213Z,3.03
2019-05-17T03:03:53.057Z,2.47
2019-05-17T03:06:23.225Z,3.37
2019-05-17T03:08:52.656Z,5.23
2019-05-17T03:11:22.813Z,3.80
2019-05-17T03:13:52.847Z,3.10
2019-05-17T03:16:35.596Z,3.37
2019-05-17T03:19:04.820Z,5.30
2019-05-17T03:21:34.134Z,2.13
2019-05-17T03:24:03.883Z,3.47
2019-05-17T03:26:45.291Z,2.40
2019-05-17T03:29:14.526Z,2.53
2019-05-17T03:31:53.544Z,2.30
2019-05-17T03:34:17.625Z,2.23
2019-05-17T03:36:47.623Z,4.40
2019-05-17T03:39:23.439Z,4.67
2019-05-17T03:41:53.628Z,4.97
2019-05-17T03:44:24.221Z,6.17
2019-05-17T03:46:53.646Z,2.33
2019-05-17T03:49:23.283Z,4.17
2019-05-17T03:51:53.388Z,3.67
2019-05-17T03:54:23.255Z,2.73
2019-05-17T03:56:53.370Z,2.83
2019-05-17T03:59:29.784Z,3.23
2019-05-17T04:01:59.090Z,3.50
2019-05-17T04:04:29.029Z,2.30
2019-05-17T04:06:58.226Z,2.50
2019-05-17T04:09:27.467Z,3.63
2019-05-17T04:11:56.891Z,3.67
2019-05-17T04:14:26.219Z,3.87
2019-05-17T04:16:55.859Z,2.33
2019-05-17T04:19:27.464Z,3.20
2019-05-17T04:21:56.931Z,3.70
2019-05-17T04:24:26.799Z,2.13
2019-05-17T04:27:03.825Z,3.53
2019-05-17T04:29:33.509Z,2.87
2019-05-17T04:32:04.157Z,6.37
2019-05-17T04:34:36.347Z,3.67
2019-05-17T04:37:05.666Z,3.33
2019-05-17T04:39:34.946Z,4.17
2019-05-17T04:42:04.446Z,3.37
2019-05-17T04:44:33.718Z,5.33
2019-05-17T04:47:03.522Z,3.13
2019-05-17T04:49:33.407Z,4.20
2019-05-17T04:52:03.714Z,3.60
2019-05-17T04:54:34.091Z,3.63
2019-05-17T04:57:03.420Z,3.03
2019-05-17T04:59:34.079Z,3.13
2019-05-17T05:02:03.673Z,2.83
2019-05-17T05:04:38.173Z,3.30
2019-05-17T05:07:04.946Z,2.57
2019-05-17T05:09:34.561Z,2.27
2019-05-17T05:12:06.242Z,2.50
2019-05-17T05:14:35.027Z,2.07
2019-05-17T05:17:04.270Z,2.20
2019-05-17T05:19:33.511Z,2.00
2019-05-17T05:22:04.564Z,1.87
2019-05-17T05:24:37.115Z,2.50
2019-05-17T05:27:07.298Z,2.37
2019-05-17T05:29:36.499Z,2.50
2019-05-17T05:32:06.580Z,1.97
2019-05-17T05:34:36.167Z,2.23
2019-05-17T05:37:05.917Z,2.33
2019-05-17T05:39:35.305Z,2.60
2019-05-17T05:42:13.831Z,1.80
2019-05-17T05:44:41.871Z,2.43
2019-05-17T05:47:23.646Z,4.13
2019-05-17T05:49:53.246Z,1.97
2019-05-17T05:52:22.570Z,1.60
2019-05-17T05:54:52.633Z,2.83
2019-05-17T05:57:22.050Z,2.17
2019-05-17T05:59:52.002Z,2.87
2019-05-17T06:02:21.847Z,3.37
2019-05-17T06:04:51.936Z,3.33
2019-05-17T06:07:21.757Z,2.70
2019-05-17T06:09:51.745Z,2.53
2019-05-17T06:12:27.681Z,3.63
2019-05-17T06:14:54.451Z,2.43
2019-05-17T06:17:24.009Z,3.90
2019-05-17T06:19:53.305Z,4.33
2019-05-17T06:22:22.989Z,4.13
2019-05-17T06:24:52.829Z,3.30
2019-05-17T06:27:22.059Z,3.97
2019-05-17T06:29:51.681Z,4.13
2019-05-17T06:32:22.807Z,5.10
2019-05-17T06:34:52.294Z,3.67
2019-05-17T06:37:22.502Z,4.93
2019-05-17T06:39:52.619Z,5.27
2019-05-17T06:42:37.027Z,4.40
2019-05-17T06:44:53.601Z,6.17
2019-05-17T06:47:23.170Z,5.30
2019-05-17T06:49:53.440Z,6.17
2019-05-17T06:52:23.165Z,6.60
2019-05-17T06:54:52.897Z,5.73
2019-05-17T06:57:23.299Z,5.17
2019-05-17T06:59:53.027Z,7.20
2019-05-17T07:02:22.395Z,4.40
2019-05-17T07:04:53.499Z,6.10
2019-05-17T07:07:30.476Z,6.10
2019-05-17T07:10:00.793Z,6.67
2019-05-17T07:12:30.650Z,8.00
2019-05-17T07:15:01.815Z,6.80
2019-05-17T07:17:31.984Z,5.70
2019-05-17T07:20:01.311Z,6.00
2019-05-17T07:22:31.560Z,6.90
2019-05-17T07:25:00.819Z,7.87
2019-05-17T07:27:41.096Z,6.07
2019-05-17T07:30:01.267Z,8.43
2019-05-17T07:32:35.266Z,6.90
2019-05-17T07:35:04.529Z,7.63
2019-05-17T07:37:33.775Z,7.27
2019-05-17T07:40:05.214Z,5.47
2019-05-17T07:42:34.012Z,6.63
2019-05-17T07:45:03.453Z,5.43
2019-05-17T07:47:33.027Z,6.30
2019-05-17T07:50:02.750Z,7.70
2019-05-17T07:52:31.917Z,5.23
2019-05-17T07:55:02.629Z,7.70
2019-05-17T07:57:32.800Z,8.50
2019-05-17T08:00:02.082Z,7.17
2019-05-17T08:02:31.652Z,6.30
2019-05-17T08:05:01.607Z,4.83
2019-05-17T08:07:30.904Z,12.83
2019-05-17T08:10:00.407Z,5.50
2019-05-17T08:12:30.410Z,6.33
2019-05-17T08:15:06.532Z,5.10
2019-05-17T08:17:35.754Z,5.77
2019-05-17T08:20:05.344Z,6.03
2019-05-17T08:22:34.939Z,8.30
2019-05-17T08:25:04.347Z,6.97
2019-05-17T08:27:33.556Z,5.50
2019-05-17T08:30:03.287Z,5.90
2019-05-17T08:32:33.068Z,4.20
2019-05-17T08:35:02.309Z,4.73
2019-05-17T08:37:31.912Z,4.17
2019-05-17T08:40:01.562Z,6.60
2019-05-17T08:42:31.110Z,3.53
2019-05-17T08:45:00.486Z,3.97
2019-05-17T08:47:30.442Z,6.43
2019-05-17T08:50:00.595Z,6.33
2019-05-17T08:52:29.823Z,5.23
2019-05-17T08:55:00.434Z,9.83
2019-05-17T08:57:30.428Z,6.60
2019-05-17T09:00:01.059Z,5.93
2019-05-17T09:02:51.482Z,3.37
2019-05-17T09:05:21.487Z,3.10
2019-05-17T09:07:51.030Z,2.97
2019-05-17T09:10:20.965Z,2.83
2019-05-17T09:12:50.570Z,2.33
2019-05-17T09:15:20.383Z,3.07
2019-05-17T09:17:49.934Z,2.43
2019-05-17T09:20:20.465Z,2.77
2019-05-17T09:22:51.024Z,3.07
2019-05-17T09:25:22.052Z,2.33
2019-05-17T09:27:51.710Z,1.70
2019-05-17T09:30:21.394Z,1.60
2019-05-17T09:32:51.291Z,1.80
2019-05-17T09:35:21.005Z,2.80
2019-05-17T09:37:50.730Z,2.70
2019-05-17T09:40:20.177Z,2.33
2019-05-17T09:42:49.946Z,3.10
2019-05-17T09:45:20.307Z,1.90
2019-05-17T09:47:50.539Z,2.47
2019-05-17T09:50:20.567Z,2.00
2019-05-17T09:53:00.010Z,1.27
2019-05-17T09:55:30.076Z,1.60
2019-05-17T09:58:00.279Z,3.07
2019-05-17T10:00:31.220Z,2.87
2019-05-17T10:03:00.724Z,2.97
2019-05-17T10:05:32.703Z,1.90
2019-05-17T10:08:02.155Z,4.37
2019-05-17T10:10:31.494Z,1.50
2019-05-17T10:13:00.832Z,2.00
2019-05-17T10:15:30.324Z,1.60
2019-05-17T10:18:00.647Z,3.30
2019-05-17T10:20:29.989Z,1.83
2019-05-17T10:22:59.699Z,1.83
2019-05-17T10:25:29.535Z,2.20
2019-05-17T10:28:00.559Z,1.83
2019-05-17T10:30:30.215Z,2.27
2019-05-17T10:33:00.120Z,2.47
2019-05-17T10:35:29.693Z,2.63
2019-05-17T10:37:59.923Z,2.17
2019-05-17T10:40:36.051Z,2.60
2019-05-17T10:43:05.547Z,3.03
2019-05-17T10:45:35.586Z,2.23
2019-05-17T10:48:05.090Z,1.53
2019-05-17T10:50:34.567Z,2.17
2019-05-17T10:53:04.829Z,2.00
2019-05-17T10:55:34.507Z,2.83
2019-05-17T10:58:04.214Z,1.77
2019-05-17T11:00:33.436Z,1.40
2019-05-17T11:03:02.655Z,1.80
2019-05-17T11:05:31.897Z,1.63
2019-05-17T11:08:01.372Z,2.07
2019-05-17T11:10:30.605Z,1.93
2019-05-17T11:12:59.855Z,1.70
2019-05-17T11:15:29.063Z,1.90
2019-05-17T11:17:58.532Z,1.80
2019-05-17T11:20:27.726Z,1.63
2019-05-17T11:22:57.191Z,1.53
2019-05-17T11:25:26.495Z,2.13
2019-05-17T11:27:56.027Z,2.17
2019-05-17T11:30:25.283Z,1.70
2019-05-17T11:32:55.458Z,2.00
2019-05-17T11:35:24.948Z,2.47
2019-05-17T11:37:54.446Z,1.50
2019-05-17T11:40:23.939Z,1.97
2019-05-17T11:42:53.210Z,1.43
2019-05-17T11:45:27.906Z,2.23
2019-05-17T11:47:53.593Z,2.07
2019-05-17T11:50:23.219Z,2.53
2019-05-17T11:52:52.495Z,3.33
2019-05-17T11:55:22.022Z,2.60
2019-05-17T11:57:51.322Z,2.40
2019-05-17T12:00:23.436Z,1.77
2019-05-17T12:02:52.707Z,2.40
2019-05-17T12:05:21.950Z,1.60
2019-05-17T12:07:51.265Z,2.27
2019-05-17T12:10:20.790Z,2.00
2019-05-17T12:12:50.467Z,2.40
2019-05-17T12:15:20.255Z,2.73
2019-05-17T12:17:49.430Z,2.33
2019-05-17T12:20:19.030Z,1.70
2019-05-17T12:22:48.619Z,2.27
2019-05-17T12:25:20.046Z,2.77
2019-05-17T12:27:49.834Z,2.00
2019-05-17T12:30:21.073Z,2.60
2019-05-17T12:32:51.154Z,2.30
2019-05-17T12:35:20.554Z,1.87
2019-05-17T12:37:50.165Z,2.20
2019-05-17T12:40:19.746Z,2.70
2019-05-17T12:42:48.956Z,2.90
2019-05-17T12:45:19.282Z,3.40
2019-05-17T12:47:48.817Z,2.80
2019-05-17T12:50:18.446Z,2.13
2019-05-17T12:52:48.403Z,2.63
2019-05-17T12:55:17.952Z,3.17
2019-05-17T12:57:47.200Z,2.53
2019-05-17T13:00:16.988Z,3.00
2019-05-17T13:02:46.715Z,2.50
2019-05-17T13:05:16.222Z,2.70
2019-05-17T13:07:45.488Z,3.27
2019-05-17T13:10:14.939Z,3.17
2019-05-17T13:16:43.088Z,2.50
2019-05-17T13:22:10.611Z,5.87
2019-05-17T13:25:18.421Z,2.93
2019-05-17T13:27:57.036Z,2.40
2019-05-17T13:30:30.127Z,2.10
2019-05-17T13:37:39.459Z,3.03
2019-05-17T13:40:39.043Z,2.90
2019-05-17T13:42:57.229Z,2.03
2019-05-17T13:45:30.604Z,3.30
2019-05-17T13:47:59.905Z,2.53
2019-05-17T13:50:29.625Z,3.13
2019-05-17T13:53:57.143Z,3.67
2019-05-17T14:00:04.804Z,2.73
2019-05-17T14:07:19.271Z,2.80
2019-05-17T14:10:29.870Z,3.30
2019-05-17T14:12:46.330Z,3.40
2019-05-17T14:20:11.400Z,3.63
2019-05-17T14:22:44.782Z,5.77
2019-05-17T14:25:40.065Z,2.93
2019-05-17T14:28:05.550Z,3.80
2019-05-17T14:30:54.784Z,3.53
2019-05-17T14:44:36.934Z,4.33
2019-05-17T14:47:24.099Z,4.37
2019-05-17T14:49:58.911Z,2.77
2019-05-17T14:52:39.007Z,3.57
2019-05-17T14:55:11.634Z,3.40
2019-05-17T14:57:43.407Z,3.83
2019-05-17T15:00:14.499Z,4.07
2019-05-17T15:02:44.269Z,4.47
2019-05-17T15:05:15.561Z,4.30
2019-05-17T15:07:45.143Z,4.63
2019-05-17T15:10:14.993Z,3.53
2019-05-17T15:12:44.231Z,3.70
2019-05-17T15:15:13.922Z,5.00
2019-05-17T15:17:43.139Z,4.50
2019-05-17T15:20:12.775Z,4.70
2019-05-17T15:22:42.170Z,5.60
2019-05-17T15:25:11.806Z,4.43
2019-05-17T15:27:42.286Z,3.30
2019-05-17T15:30:18.506Z,3.90
2019-05-17T15:32:51.820Z,5.17
2019-05-17T15:35:21.234Z,2.47
2019-05-17T15:37:50.790Z,3.60
2019-05-17T15:40:20.066Z,4.87
2019-05-17T15:43:01.598Z,4.20
2019-05-17T15:45:30.961Z,4.67
2019-05-17T15:48:00.446Z,4.63
2019-05-17T15:50:29.681Z,4.30
2019-05-17T15:52:59.258Z,5.27
2019-05-17T15:55:28.889Z,3.90
2019-05-17T15:57:58.998Z,4.83
2019-05-17T16:00:28.278Z,6.37
2019-05-17T16:02:57.602Z,5.33
2019-05-17T16:05:27.698Z,4.23
2019-05-17T16:07:56.919Z,3.77
2019-05-17T16:10:26.142Z,3.33
2019-05-17T16:13:02.179Z,3.70
2019-05-17T16:15:26.857Z,3.20
2019-05-17T16:17:57.984Z,4.27
2019-05-17T16:20:27.359Z,2.97
2019-05-17T16:23:05.374Z,4.10
2019-05-17T16:25:39.172Z,3.13
2019-05-17T16:28:09.441Z,3.43
2019-05-17T16:30:38.833Z,4.13
2019-05-17T16:33:08.394Z,3.47
2019-05-17T16:35:38.487Z,2.97
2019-05-17T16:38:07.910Z,3.20
2019-05-17T16:40:37.474Z,2.87
2019-05-17T16:43:17.643Z,4.00
2019-05-17T16:45:43.860Z,3.40
2019-05-17T16:48:13.394Z,4.07
2019-05-17T16:50:43.154Z,3.47
2019-05-17T16:53:12.524Z,2.77
2019-05-17T16:55:42.494Z,2.90
2019-05-17T16:58:12.215Z,2.87
2019-05-17T17:00:43.316Z,3.20
2019-05-17T17:03:12.927Z,3.63
2019-05-17T17:05:42.545Z,5.50
2019-05-17T17:08:11.795Z,4.40
2019-05-17T17:10:46.869Z,2.87
2019-05-17T17:13:16.127Z,4.53
2019-05-17T17:15:45.942Z,2.90
2019-05-17T17:18:15.508Z,3.60
2019-05-17T17:20:44.795Z,3.00
2019-05-17T17:23:14.413Z,3.17
2019-05-17T17:25:44.107Z,3.13
2019-05-17T17:28:13.544Z,4.17
2019-05-17T17:30:42.894Z,4.80
2019-05-17T17:33:12.398Z,4.20
2019-05-17T17:35:42.199Z,3.73
2019-05-17T17:38:11.971Z,3.80
2019-05-17T17:40:41.638Z,3.17
2019-05-17T17:43:11.643Z,4.00
2019-05-17T17:45:41.794Z,3.30
2019-05-17T17:48:15.019Z,3.07
2019-05-17T17:50:58.404Z,3.00
2019-05-17T17:53:39.513Z,3.20
2019-05-17T17:56:13.567Z,2.80
2019-05-17T17:58:45.306Z,3.33
2019-05-17T18:01:18.831Z,3.47
2019-05-17T18:03:48.881Z,3.60
2019-05-17T18:06:20.331Z,3.33
2019-05-17T18:08:49.916Z,3.00
2019-05-17T18:11:20.024Z,3.10
2019-05-17T18:13:49.384Z,3.20
2019-05-17T18:16:24.580Z,4.33
2019-05-17T18:18:54.254Z,4.83
2019-05-17T18:21:23.632Z,2.90
2019-05-17T18:23:57.248Z,3.00
2019-05-17T18:26:28.162Z,4.37
2019-05-17T18:28:58.047Z,2.87
2019-05-17T18:31:34.176Z,3.07
2019-05-17T18:34:04.019Z,5.20
2019-05-17T18:36:34.899Z,3.20
2019-05-17T18:39:06.403Z,3.33
2019-05-17T18:41:35.999Z,3.10
2019-05-17T18:44:07.835Z,3.07
2019-05-17T18:46:37.506Z,2.53
2019-05-17T18:49:07.169Z,3.50
2019-05-17T18:51:37.601Z,3.20
2019-05-17T18:54:09.288Z,3.73
2019-05-17T18:56:45.099Z,3.47
2019-05-17T18:59:14.778Z,3.27
2019-05-17T19:01:44.792Z,2.73
2019-05-17T19:04:14.562Z,3.10
2019-05-17T19:06:44.644Z,3.63
2019-05-17T19:09:14.250Z,3.00
2019-05-17T19:11:43.918Z,3.80
2019-05-17T19:14:13.569Z,3.03
2019-05-17T19:16:43.256Z,3.10
2019-05-17T19:19:14.754Z,3.17
2019-05-17T19:21:44.039Z,2.70
2019-05-17T19:24:13.358Z,2.70
2019-05-17T19:26:42.978Z,2.57
2019-05-17T19:29:12.314Z,4.33
2019-05-17T19:31:42.038Z,3.20
2019-05-17T19:34:11.324Z,3.40
2019-05-17T19:36:41.657Z,3.00
2019-05-17T19:39:11.163Z,3.10
2019-05-17T19:41:41.124Z,2.80
2019-05-17T19:44:10.810Z,2.97
2019-05-17T19:46:40.197Z,3.60
2019-05-17T19:49:09.496Z,4.40
2019-05-17T19:51:49.279Z,3.63
2019-05-17T19:54:19.234Z,3.30
2019-05-17T19:57:10.172Z,3.23
2019-05-17T20:00:03.728Z,3.33
2019-05-17T20:02:46.752Z,3.10
2019-05-17T20:05:28.621Z,3.47
2019-05-17T20:08:11.493Z,3.03
2019-05-17T20:11:34.136Z,3.70
2019-05-17T20:13:50.175Z,3.30
2019-05-17T20:16:36.671Z,4.80
2019-05-17T20:19:04.709Z,3.37
2019-05-17T20:21:34.588Z,3.40
2019-05-17T20:26:41.684Z,2.90
2019-05-17T20:29:10.909Z,3.07
2019-05-17T20:31:47.295Z,3.20
2019-05-17T20:34:17.526Z,3.27
2019-05-17T20:36:47.623Z,3.20
2019-05-17T20:39:21.480Z,5.00
2019-05-17T20:41:52.522Z,3.30
2019-05-17T20:44:41.845Z,3.40
2019-05-17T20:47:12.473Z,3.20
2019-05-17T20:49:46.967Z,3.37
2019-05-17T20:52:17.293Z,3.70
2019-05-17T20:54:47.572Z,3.13
2019-05-17T20:57:17.440Z,4.77
2019-05-17T20:59:47.254Z,3.87
2019-05-17T21:02:17.201Z,3.70
2019-05-17T21:04:47.219Z,3.30
2019-05-17T21:07:17.063Z,3.20
2019-05-17T21:09:46.675Z,3.23
2019-05-17T21:12:16.670Z,3.57
2019-05-17T21:14:47.207Z,3.50
2019-05-17T21:17:17.132Z,3.10
2019-05-17T21:19:47.824Z,3.60
2019-05-17T21:22:20.462Z,4.23
2019-05-17T21:24:50.414Z,3.83
2019-05-17T21:27:20.621Z,4.53
2019-05-17T21:29:50.239Z,4.00
2019-05-17T21:32:24.685Z,3.93
2019-05-17T21:34:57.614Z,4.10
2019-05-17T21:37:27.748Z,4.13
2019-05-17T21:39:57.153Z,4.20
2019-05-17T21:42:32.472Z,3.93
2019-05-17T21:45:03.318Z,3.77
2019-05-17T21:47:33.195Z,3.87
2019-05-17T21:50:02.922Z,3.90
2019-05-17T21:52:48.741Z,5.60
2019-05-17T21:55:23.809Z,5.10
2019-05-17T21:57:53.488Z,4.33
2019-05-17T22:01:06.270Z,3.23
2019-05-17T22:03:51.979Z,4.07
2019-05-17T22:06:23.554Z,4.20
2019-05-17T22:08:55.244Z,3.93
2019-05-17T22:11:28.835Z,4.43
2019-05-17T22:13:58.334Z,3.80
2019-05-17T22:16:27.623Z,4.47
2019-05-17T22:18:57.868Z,4.43
2019-05-17T22:21:27.186Z,4.90
2019-05-17T22:23:59.015Z,4.80
2019-05-17T22:26:28.485Z,4.73
2019-05-17T22:28:58.095Z,4.90
2019-05-17T22:31:28.031Z,3.93
2019-05-17T22:33:57.567Z,4.40
2019-05-17T22:36:26.862Z,5.17
2019-05-17T22:38:56.813Z,5.13
2019-05-17T22:41:26.312Z,4.33
2019-05-17T22:43:55.786Z,4.80
2019-05-17T22:46:35.608Z,4.73
2019-05-17T22:48:55.903Z,4.73
2019-05-17T22:51:25.179Z,4.27
2019-05-17T22:53:54.790Z,6.07
2019-05-17T22:56:24.361Z,5.67
2019-05-17T22:58:53.826Z,4.50
2019-05-17T23:01:26.195Z,4.77
2019-05-17T23:03:56.521Z,5.27
2019-05-17T23:06:26.568Z,4.23
2019-05-17T23:08:58.507Z,4.80
2019-05-17T23:11:28.824Z,5.07
2019-05-17T23:13:58.915Z,4.97
2019-05-17T23:16:34.579Z,4.60
2019-05-17T23:19:08.098Z,4.57
2019-05-17T23:21:38.070Z,5.00
2019-05-17T23:24:07.654Z,5.37
2019-05-17T23:26:40.249Z,6.43
2019-05-17T23:29:10.599Z,4.40
2019-05-17T23:31:50.411Z,5.67
2019-05-17T23:34:20.819Z,4.57
2019-05-17T23:36:50.399Z,5.83
2019-05-17T23:39:20.697Z,4.77
2019-05-17T23:41:52.885Z,6.33
2019-05-17T23:44:24.180Z,4.30
2019-05-17T23:47:06.008Z,4.90
2019-05-17T23:49:24.693Z,4.77
2019-05-17T23:51:54.883Z,5.77
2019-05-17T23:54:27.243Z,5.03
2019-05-17T23:57:01.305Z,4.43
2019-05-17T23:59:31.334Z,5.50
